Latest Weather Observations for Coolangatta

IDQ60901

Issued at 2:25 pm EST Monday 21 April 2014 (issued every 10 minutes, with the page automatically refreshed every 10 minutes)

About weather observations | Map of Brisbane area stations | Latest observations for Brisbane area | Other Formats
Station Details ID: 040717 Name: COOLANGATTA Lat: -28.17 Lon: 153.51 Height: 4.0 m
Data from the previous 72 hours. | See also: Recent months at Coolangatta
Date/Time
EST
Tmp

°C
App
Tmp
°C
Dew
Point
°C
Rel
Hum
%
Delta-T

°C
Wind Press
QNH
hPa
Press
MSL
hPa
Rain
since
9 am
mm
Dir
 
Spd
km/h
Gust
km/h
Spd
kts
Gust
kts
21/02:00pm 27.3 25.0 17.5 55 6.2 N 26 33 14 18 1018.1 - 0.0
21/01:30pm 26.8 23.9 16.1 52 6.6 N 26 32 14 17 1018.4 - 0.0
21/01:00pm 27.2 24.7 17.1 54 6.3 N 26 32 14 17 1018.7 - 0.0
21/12:30pm 27.0 24.2 17.2 55 6.1 N 28 33 15 18 1019.1 - 0.0
21/12:00pm 26.6 24.3 17.7 58 5.6 N 26 32 14 17 1019.5 1019.4 0.0
21/11:30am 27.0 24.8 17.8 57 5.8 N 26 32 14 17 1019.9 - 0.0
21/11:00am 26.2 24.2 17.3 58 5.6 N 24 30 13 16 1020.2 - 0.0
21/10:30am 26.2 24.4 17.0 57 5.7 N 22 30 12 16 1020.6 - 0.0
21/10:00am 26.1 25.0 17.2 58 5.5 NNW 19 28 10 15 1020.9 - 0.0
21/09:30am 25.9 24.5 16.5 56 5.8 NNW 19 26 10 14 1021.0 - 0.0
21/09:00am 25.1 23.7 16.5 59 5.3 NW 19 30 10 16 1021.0 1020.9 0.0
21/08:30am 24.2 23.2 16.5 62 4.7 NW 17 24 9 13 1021.0 - 0.0
21/08:00am 23.4 23.0 16.2 64 4.4 NW 13 17 7 9 1020.9 - 0.0
21/07:30am 21.9 21.6 16.4 71 3.3 WNW 13 17 7 9 1020.6 - 0.0
21/07:00am 18.9 19.6 17.0 89 1.1 WNW 9 13 5 7 1020.3 - 0.0
21/06:30am 16.5 17.1 15.7 95 0.5 WSW 7 9 4 5 1020.0 - 0.0
21/06:00am 15.1 15.0 14.0 93 0.6 WNW 7 9 4 5 1019.6 1019.5 0.0
21/05:30am 15.7 16.0 14.6 93 0.6 W 6 7 3 4 1019.4 - 0.0
21/05:00am 16.2 16.7 15.1 93 0.6 W 6 6 3 3 1019.2 - 0.0
21/04:30am 16.5 16.7 14.7 89 1.0 W 7 9 4 5 1018.8 - 0.0
21/04:00am 16.8 16.6 14.6 87 1.3 WNW 9 11 5 6 1018.6 - 0.0
21/03:30am 18.0 18.0 15.1 83 1.7 WNW 9 11 5 6 1018.3 - 0.0
21/03:00am 17.3 17.0 14.4 83 1.7 WNW 9 11 5 6 1018.3 1018.2 0.0
21/02:30am 17.2 16.8 15.2 88 1.2 W 11 13 6 7 1018.3 - 0.0
21/02:00am 16.5 16.2 14.5 88 1.1 W 9 11 5 6 1018.4 - 0.0
21/01:30am 15.7 15.5 14.6 93 0.6 W 9 11 5 6 1018.6 - 0.0
21/01:00am 16.1 16.4 15.0 93 0.6 WSW 7 7 4 4 1018.7 - 0.0
21/12:30am 16.3 16.8 15.0 92 0.8 W 6 7 3 4 1018.8 - 0.0
21/12:00am 16.1 15.9 14.8 92 0.7 WNW 9 11 5 6 1018.8 1018.7 0.0
 
Date/Time
EST
Tmp

°C
App
Tmp
°C
Dew
Point
°C
Rel
Hum
%
Delta-T

°C
Wind Press
QNH
hPa
Press
MSL
hPa
Rain
since
9 am
mm
Dir
 
Spd
km/h
Gust
km/h
Spd
kts
Gust
kts
20/11:30pm 16.0 16.1 14.4 90 0.9 W 7 9 4 5 1018.8 - 0.0
20/11:00pm 16.5 16.8 15.0 91 0.9 WSW 7 9 4 5 1019.0 - 0.0
20/10:30pm 16.7 17.2 15.1 90 0.9 WSW 6 7 3 4 1019.1 - 0.0
20/10:00pm 16.9 17.4 14.9 88 1.2 W 6 7 3 4 1018.9 - 0.0
20/09:30pm 17.6 18.2 15.8 89 1.1 W 7 9 4 5 1018.9 - 0.0
20/09:00pm 17.8 17.6 15.6 87 1.3 WSW 11 13 6 7 1018.6 1018.5 0.0
20/08:30pm 18.5 19.1 15.4 82 1.8 W 6 9 3 5 1018.6 - 0.0
20/08:00pm 20.0 20.3 15.0 73 2.9 WNW 7 11 4 6 1018.4 - 0.0
20/07:30pm 23.2 22.0 16.0 64 4.4 N 17 20 9 11 1018.1 - 0.0
20/07:00pm 23.4 22.0 15.5 61 4.7 N 17 22 9 12 1017.8 - 0.0
20/06:30pm 23.4 22.3 16.4 64 4.3 N 17 20 9 11 1017.6 - 0.0
20/06:00pm 23.2 21.9 15.8 63 4.5 N 17 20 9 11 1017.3 1017.2 0.0
20/05:30pm 23.7 22.4 15.7 61 4.8 N 17 20 9 11 1016.8 - 0.0
20/05:00pm 24.1 22.4 14.8 56 5.5 NNE 17 20 9 11 1016.6 - 0.0
20/04:30pm 24.6 22.8 15.5 57 5.5 NNE 19 24 10 13 1016.3 - 0.0
20/04:00pm 25.0 23.0 15.6 56 5.7 NNE 20 26 11 14 1016.2 - 0.0
20/03:30pm 25.3 23.6 16.2 57 5.6 NNE 20 24 11 13 1016.0 - 0.0
20/03:00pm 25.3 23.6 16.2 57 5.6 NNE 20 26 11 14 1016.0 1015.9 0.0
20/02:30pm 25.6 24.1 16.4 56 5.7 NNE 19 24 10 13 1016.1 - 0.0
20/02:00pm 25.3 23.7 15.9 56 5.7 NNE 19 24 10 13 1016.2 - 0.0
20/01:30pm 24.5 22.9 16.0 59 5.2 NNE 19 22 10 12 1016.1 - 0.0
20/01:00pm 25.3 23.5 15.6 55 5.9 NNE 19 22 10 12 1016.4 - 0.0
20/12:30pm 25.9 24.1 15.9 54 6.1 NNE 20 22 11 12 1016.7 - 0.0
20/12:00pm 26.1 24.5 16.1 54 6.1 NNE 19 24 10 13 1017.2 1017.1 0.0
20/11:30am 26.0 24.1 15.1 51 6.6 NNE 19 24 10 13 1017.6 - 0.0
20/11:00am 25.3 23.3 13.8 49 6.8 NNE 17 20 9 11 1018.0 - 0.0
20/10:30am 25.7 24.3 14.5 50 6.7 NNE 15 20 8 11 1018.4 - 0.0
20/10:00am 25.7 24.0 13.5 46 7.2 N 15 20 8 11 1018.6 - 0.0
20/09:30am 24.9 24.0 13.8 50 6.5 N 11 17 6 9 1018.6 - 0.0
20/09:00am 24.5 24.8 14.6 54 5.9 SW 6 9 3 5 1018.6 1018.5 0.0
20/08:30am 22.1 22.2 14.0 60 4.7 SW 6 7 3 4 1018.5 - 0.0
20/08:00am 20.5 21.5 15.3 72 3.1 SSE 4 6 2 3 1018.4 - 0.0
20/07:30am 17.8 18.6 14.9 83 1.7 SSW 4 6 2 3 1018.2 - 0.0
20/07:00am 15.9 16.2 14.4 91 0.9 SSW 6 6 3 3 1017.8 - 0.0
20/06:30am 14.0 13.7 12.7 92 0.7 SSW 6 7 3 4 1017.5 - 0.0
20/06:00am 13.4 12.8 12.3 93 0.6 SW 7 7 4 4 1017.1 1017.0 0.0
20/05:30am 13.9 14.4 12.8 93 0.6 SW 2 6 1 3 1016.8 - 0.0
20/05:00am 13.9 13.9 12.5 91 0.8 SW 4 7 2 4 1016.6 - 0.0
20/04:30am 13.6 13.4 11.8 89 1.0 SW 4 7 2 4 1016.4 - 0.0
20/04:00am 13.9 14.3 12.5 91 0.8 SW 2 6 1 3 1016.2 - 0.0
20/03:30am 13.8 13.2 11.8 88 1.1 SW 6 7 3 4 1016.1 - 0.0
20/03:00am 14.3 13.8 12.5 89 1.0 SSW 7 9 4 5 1016.2 1016.1 0.0
20/02:30am 15.2 15.2 13.6 90 0.9 SSW 6 7 3 4 1016.2 - 0.0
20/02:00am 14.2 14.7 11.7 85 1.3 CALM 0 0 0 0 1016.2 - 0.0
20/01:30am 15.2 15.8 13.1 87 1.2 SW 2 7 1 4 1016.3 - 0.0
20/01:00am 15.0 14.4 12.3 84 1.5 SSW 7 9 4 5 1016.5 - 0.0
20/12:30am 15.7 16.2 12.8 83 1.6 SSW 2 7 1 4 1016.7 - 0.0
20/12:00am 15.8 15.6 13.1 84 1.5 SW 6 7 3 4 1016.8 1016.7 0.0
 
Date/Time
EST
Tmp

°C
App
Tmp
°C
Dew
Point
°C
Rel
Hum
%
Delta-T

°C
Wind Press
QNH
hPa
Press
MSL
hPa
Rain
since
9 am
mm
Dir
 
Spd
km/h
Gust
km/h
Spd
kts
Gust
kts
19/11:30pm 14.9 14.7 11.7 81 1.7 SSW 4 7 2 4 1016.9 - 0.0
19/11:00pm 15.8 16.2 12.4 80 1.9 SSW 2 7 1 4 1016.8 - 0.0
19/10:30pm 16.0 16.4 12.4 79 2.0 WSW 2 6 1 3 1016.7 - 0.0
19/10:00pm 16.3 16.4 12.7 79 2.0 SW 4 7 2 4 1016.6 - 0.0
19/09:30pm 16.5 16.5 12.3 76 2.3 SW 4 6 2 3 1016.7 - 0.0
19/09:00pm 17.1 17.5 12.6 75 2.5 SSW 2 7 1 4 1016.6 1016.5 0.0
19/08:30pm 17.4 17.1 12.7 74 2.6 SSW 6 11 3 6 1016.4 - 0.0
19/08:00pm 17.3 16.2 13.0 76 2.4 WSW 11 13 6 7 1016.3 - 0.0
19/07:30pm 17.6 16.7 12.5 72 2.8 WSW 9 13 5 7 1015.9 - 0.0
19/07:00pm 18.3 17.5 13.0 71 3.0 WSW 9 11 5 6 1015.4 - 0.0
19/06:30pm 18.8 17.4 12.1 65 3.7 WSW 11 13 6 7 1015.0 - 0.0
19/06:00pm 20.8 19.4 10.9 53 5.4 SE 9 11 5 6 1014.7 1014.6 0.0
19/05:30pm 22.3 20.2 11.1 49 6.2 SE 13 19 7 10 1014.6 - 0.0
19/05:00pm 23.4 20.2 11.1 46 6.9 SE 19 26 10 14 1014.2 - 0.0
19/04:30pm 24.1 20.0 11.4 45 7.1 ESE 24 30 13 16 1013.8 - 0.0
19/04:00pm 24.8 21.3 12.1 45 7.3 ESE 22 30 12 16 1013.7 - 0.0
19/03:30pm 26.6 24.1 11.1 38 8.8 S 15 20 8 11 1013.4 - 0.0
19/03:00pm 26.9 24.0 11.0 37 9.0 ESE 17 24 9 13 1013.5 1013.4 0.0
19/02:30pm 26.4 23.2 10.1 36 9.1 E 17 24 9 13 1013.5 - 0.0
19/02:00pm 26.8 23.4 11.3 38 8.8 ESE 20 28 11 15 1013.5 - 0.0
19/01:30pm 26.4 22.8 10.5 37 8.9 E 20 30 11 16 1013.5 - 0.0
19/01:00pm 27.1 24.3 9.9 34 9.6 SSE 15 20 8 11 1013.8 - 0.0
19/12:30pm 26.8 23.6 10.1 35 9.3 SSE 17 26 9 14 1014.2 - 0.0
19/12:00pm 26.6 23.3 9.5 34 9.4 SSE 17 24 9 13 1014.6 1014.5 0.0
19/11:30am 26.5 23.4 10.2 36 9.1 S 17 24 9 13 1015.3 - 0.0
19/11:00am 26.3 23.5 10.0 36 9.0 S 15 20 8 11 1015.7 - 0.0
19/10:30am 25.5 23.4 9.7 37 8.7 SW 11 17 6 9 1016.1 - 0.0
19/10:00am 25.1 22.5 10.6 40 8.1 SW 15 20 8 11 1016.4 - 0.0
19/09:30am 24.6 21.9 10.5 41 7.8 SW 15 24 8 13 1016.5 - 0.0
19/09:00am 24.0 21.7 11.7 46 6.9 SW 15 20 8 11 1016.7 1016.6 0.0
19/08:30am 22.3 21.3 12.3 53 5.7 WSW 9 15 5 8 1016.6 - 0.0
19/08:00am 19.8 20.2 15.4 76 2.6 SSW 7 13 4 7 1016.6 - 0.0
19/07:30am 17.6 19.3 16.3 92 0.8 NNW 2 9 1 5 1016.4 - 0.0
19/07:00am 16.2 17.1 15.2 94 0.6 WSW 4 6 2 3 1016.2 - 0.0
19/06:48am 15.6 15.9 14.6 94 0.6 WSW 6 7 3 4 1016.1 - 0.0
19/06:30am 15.1 16.5 14.3 95 0.5 CALM 0 0 0 0 1015.9 - 0.0
19/06:27am 14.9 16.2 14.1 95 0.5 CALM 0 0 0 0 1015.9 - 0.0
19/06:01am 15.3 16.0 14.5 95 0.5 SW 4 7 2 4 1015.8 - 0.0
19/06:00am 15.3 16.0 14.5 95 0.5 WSW 4 7 2 4 1015.8 1015.7 0.0
19/05:51am 14.5 14.3 13.7 95 0.4 WSW 7 11 4 6 1015.8 - 0.0
19/05:30am 15.8 16.4 15.2 96 0.3 SW 6 7 3 4 1015.5 - 0.0
19/05:24am 16.1 17.5 15.5 96 0.3 SW 2 7 1 4 1015.5 - 0.0
19/05:00am 15.6 16.1 15.0 96 0.3 SW 6 9 3 5 1015.5 - 0.0
19/04:30am 15.7 16.2 14.9 95 0.5 SW 6 7 3 4 1015.3 - 0.0
19/04:03am 15.5 15.8 14.5 94 0.6 WSW 6 7 3 4 1015.1 - 0.0
19/04:00am 16.1 17.1 15.3 95 0.5 WSW 4 7 2 4 1015.1 - 0.0
19/03:30am 16.3 16.7 15.3 94 0.6 WSW 7 9 4 5 1015.1 - 0.0
19/03:00am 16.3 16.7 15.2 93 0.6 WSW 7 9 4 5 1015.2 1015.1 0.0
19/02:30am 17.0 17.3 16.0 94 0.6 SW 9 11 5 6 1015.4 - 0.0
19/02:00am 16.4 16.8 15.3 93 0.6 WSW 7 9 4 5 1015.5 - 0.0
19/01:30am 17.1 18.1 15.4 90 1.0 SW 4 6 2 3 1015.6 - 0.0
19/01:00am 18.1 18.0 15.9 87 1.3 W 11 15 6 8 1015.7 - 0.0
19/12:30am 17.2 17.0 15.7 91 0.9 W 11 13 6 7 1015.8 - 0.0
19/12:00am 16.7 16.4 15.4 92 0.8 W 11 13 6 7 1015.9 1015.8 0.0
 
Date/Time
EST
Tmp

°C
App
Tmp
°C
Dew
Point
°C
Rel
Hum
%
Delta-T

°C
Wind Press
QNH
hPa
Press
MSL
hPa
Rain
since
9 am
mm
Dir
 
Spd
km/h
Gust
km/h
Spd
kts
Gust
kts
18/11:30pm 17.0 17.0 15.3 90 1.0 WSW 9 11 5 6 1016.1 - 0.0
18/11:00pm 17.3 17.4 15.6 90 1.0 W 9 11 5 6 1016.2 - 0.0
18/10:30pm 17.1 17.4 15.1 88 1.2 WSW 7 9 4 5 1016.3 - 0.0
18/10:00pm 17.7 18.4 15.7 88 1.2 WSW 6 9 3 5 1016.5 - 0.0
18/09:30pm 18.0 18.7 16.0 88 1.2 WSW 7 9 4 5 1016.5 - 0.0
18/09:00pm 17.9 18.5 15.7 87 1.3 WSW 7 9 4 5 1016.4 1016.3 0.0
18/08:30pm 18.3 19.0 15.7 85 1.5 WSW 6 9 3 5 1016.2 - 0.0
18/08:00pm 18.3 18.5 15.7 85 1.5 WSW 9 11 5 6 1016.0 - 0.0
18/07:30pm 18.3 18.7 15.4 83 1.7 WSW 7 11 4 6 1015.6 - 0.0
18/07:00pm 18.5 18.5 15.2 81 1.9 W 9 11 5 6 1015.3 - 0.0
18/06:30pm 19.3 19.6 14.6 74 2.7 NNW 6 9 3 5 1015.0 - 0.0
18/06:00pm 21.1 21.0 15.0 68 3.6 N 9 13 5 7 1014.8 1014.7 0.0
18/05:30pm 22.1 21.6 15.0 64 4.2 NNE 11 13 6 7 1014.6 - 0.0
18/05:00pm 22.9 21.9 14.7 60 4.8 NE 13 15 7 8 1014.4 - 0.0
18/04:30pm 23.4 22.3 14.4 57 5.3 ENE 13 17 7 9 1014.1 - 0.0
18/04:00pm 23.8 22.8 14.5 56 5.5 ENE 13 17 7 9 1013.9 - 0.0
18/03:30pm 24.1 22.5 13.9 53 6.0 NE 15 19 8 10 1013.8 - 0.0
18/03:00pm 24.2 22.1 13.7 52 6.1 ENE 17 22 9 12 1013.6 1013.5 0.0
18/02:30pm 24.3 22.6 13.5 51 6.3 ENE 15 20 8 11 1013.8 - 0.0

Latest Capital City Observations: Canberra | Sydney | Melbourne | Brisbane | Adelaide | Perth | Hobart | Darwin

Other Formats:

Comma delimited format used in spreadsheet applications
http://www.bom.gov.au/fwo/IDQ60901/IDQ60901.94592.axf

JavaScript Object Notation format (JSON) in row-major order
http://www.bom.gov.au/fwo/IDQ60901/IDQ60901.94592.json